Time;durP1;ratioP1;P1;durP2;ratioP2;P2;SDS_P1;SDS_P2;PMS_P1;PMS_P2;Temp;Humidity;BMP_temperature;BMP_pressure;BME280_temperature;BME280_humidity;BME280_pressure;Samples;Min_cycle;Max_cycle;Signal;HPM_P1;HPM_P2
2023/09/01 00:00:33;;;;;;;1.63;1.53;;;23.30;45.30;;;;;;5012774;28;20476;-80
2023/09/01 00:02:58;;;;;;;1.70;1.60;;;23.30;45.30;;;;;;5015949;28;20467;-79
2023/09/01 00:05:24;;;;;;;1.67;1.57;;;23.30;45.40;;;;;;5013293;28;20222;-82
2023/09/01 00:07:49;;;;;;;1.87;1.60;;;23.30;45.30;;;;;;5011830;28;20237;-81
2023/09/01 00:10:15;;;;;;;1.70;1.60;;;23.30;45.30;;;;;;5011001;28;20227;-81
2023/09/01 00:12:41;;;;;;;1.70;1.60;;;23.30;45.30;;;;;;5016208;28;20222;-80
2023/09/01 00:15:06;;;;;;;1.87;1.77;;;23.30;45.40;;;;;;5013436;28;20276;-80
2023/09/01 00:17:32;;;;;;;1.43;1.30;;;23.30;45.30;;;;;;5017376;28;20218;-80
2023/09/01 00:19:58;;;;;;;1.90;1.60;;;23.20;45.20;;;;;;5011166;28;20407;-81
2023/09/01 00:22:23;;;;;;;4.10;1.80;;;23.30;45.30;;;;;;5022724;28;20645;-82
2023/09/01 00:24:49;;;;;;;1.73;1.63;;;23.30;45.30;;;;;;5011871;28;20215;-79
2023/09/01 00:27:15;;;;;;;1.70;1.60;;;23.30;45.30;;;;;;5013384;28;20223;-81
2023/09/01 00:29:40;;;;;;;1.90;1.80;;;23.30;45.30;;;;;;5018416;28;20227;-81
2023/09/01 00:32:06;;;;;;;1.70;1.60;;;23.20;45.20;;;;;;5016757;28;20467;-80
2023/09/01 00:34:32;;;;;;;2.07;1.90;;;23.30;45.40;;;;;;5011909;28;20215;-82
2023/09/01 00:36:57;;;;;;;2.40;1.50;;;23.20;45.20;;;;;;5016503;28;20226;-80
2023/09/01 00:39:23;;;;;;;1.50;1.40;;;23.30;45.30;;;;;;5015872;28;20431;-79
2023/09/01 00:41:49;;;;;;;1.70;1.60;;;23.30;45.40;;;;;;5011065;28;20261;-81
2023/09/01 00:44:14;;;;;;;1.80;1.70;;;23.30;45.30;;;;;;5001023;28;20525;-79
2023/09/01 00:46:46;;;;;;;1.50;1.40;;;23.20;45.20;;;;;;5006971;28;21049;-81
2023/09/01 00:49:13;;;;;;;3.93;1.70;;;23.20;45.20;;;;;;5012354;28;20237;-82
2023/09/01 00:51:39;;;;;;;1.60;1.50;;;23.20;45.20;;;;;;5011839;28;20471;-82
2023/09/01 00:54:05;;;;;;;1.57;1.47;;;23.20;45.30;;;;;;5016144;28;20463;-80
2023/09/01 00:56:31;;;;;;;1.40;1.30;;;23.30;45.30;;;;;;5015819;28;20456;-80
2023/09/01 00:58:57;;;;;;;1.70;1.60;;;23.20;45.20;;;;;;5013475;28;20464;-82
2023/09/01 01:01:22;;;;;;;1.50;1.40;;;23.30;45.30;;;;;;5011166;28;20509;-81
2023/09/01 01:03:51;;;;;;;1.77;1.67;;;23.20;45.20;;;;;;5014707;28;20757;-82
2023/09/01 01:06:39;;;;;;;1.63;1.40;;;23.20;45.20;;;;;;5010633;28;20297;-79
2023/09/01 01:09:20;;;;;;;1.70;1.60;;;23.20;45.20;;;;;;5013020;28;20456;-81
2023/09/01 01:12:16;;;;;;;1.90;1.80;;;23.20;45.20;;;;;;5008111;28;21019;-81
2023/09/01 01:14:53;;;;;;;1.80;1.70;;;23.30;45.30;;;;;;5007592;28;20994;-79
2023/09/01 01:17:19;;;;;;;1.50;1.40;;;23.20;45.20;;;;;;5017994;28;20491;-79
2023/09/01 01:19:53;;;;;;;1.60;1.50;;;23.20;45.20;;;;;;5016834;28;20479;-79
2023/09/01 01:22:40;;;;;;;2.57;1.90;;;23.20;45.20;;;;;;5008889;28;20479;-81
2023/09/01 01:25:12;;;;;;;1.70;1.60;;;23.20;45.20;;;;;;5012100;28;20479;-79
2023/09/01 01:27:41;;;;;;;1.50;1.40;;;23.20;45.30;;;;;;5010520;28;20479;-79
2023/09/01 01:30:09;;;;;;;2.10;2.00;;;23.20;45.20;;;;;;5012192;28;20536;-80
2023/09/01 01:32:36;;;;;;;2.50;2.00;;;23.20;45.20;;;;;;5015322;28;20456;-81
2023/09/01 01:35:19;;;;;;;1.70;1.60;;;23.20;45.30;;;;;;5014676;28;20456;-78
2023/09/01 01:38:25;;;;;;;1.90;1.80;;;23.20;45.20;;;;;;5013515;28;20553;-79
2023/09/01 01:40:58;;;;;;;1.70;1.60;;;23.20;45.20;;;;;;5013526;28;20468;-81
2023/09/01 01:43:27;;;;;;;1.60;1.50;;;23.20;45.30;;;;;;5013541;28;21620;-80
2023/09/01 01:45:53;;;;;;;1.70;1.60;;;23.20;45.30;;;;;;5011733;28;21081;-81
2023/09/01 01:48:19;;;;;;;1.73;1.63;;;23.20;45.30;;;;;;5015870;28;20525;-80
2023/09/01 01:50:44;;;;;;;1.73;1.63;;;23.20;45.30;;;;;;5012707;28;20468;-79
2023/09/01 01:53:10;;;;;;;2.10;2.00;;;23.20;45.30;;;;;;5016783;28;20630;-82
2023/09/01 01:55:35;;;;;;;2.10;1.90;;;23.20;45.30;;;;;;5013243;28;20691;-82
2023/09/01 01:58:01;;;;;;;2.30;1.57;;;23.20;45.30;;;;;;5020838;28;20230;-82
2023/09/01 02:00:27;;;;;;;1.73;1.50;;;23.20;45.30;;;;;;5016779;28;20851;-82
2023/09/01 02:02:53;;;;;;;1.60;1.50;;;23.20;45.30;;;;;;5026872;28;20724;-80
2023/09/01 02:05:19;;;;;;;1.70;1.60;;;23.20;45.30;;;;;;5019571;28;20543;-81
2023/09/01 02:07:45;;;;;;;1.73;1.60;;;23.20;45.30;;;;;;5018801;28;20463;-79
2023/09/01 02:10:11;;;;;;;2.00;1.80;;;23.20;45.40;;;;;;5014982;28;20222;-79
2023/09/01 02:12:36;;;;;;;1.90;1.80;;;23.20;45.30;;;;;;5015125;28;20240;-81
2023/09/01 02:15:03;;;;;;;1.70;1.60;;;23.20;45.30;;;;;;5009729;28;20467;-81
2023/09/01 02:17:29;;;;;;;1.80;1.70;;;23.20;45.30;;;;;;5017027;28;20297;-81
2023/09/01 02:19:56;;;;;;;1.97;1.40;;;23.20;45.30;;;;;;5015503;28;20834;-79
2023/09/01 02:22:21;;;;;;;1.80;1.70;;;23.20;45.30;;;;;;5020960;28;20242;-81
2023/09/01 02:24:47;;;;;;;1.77;1.67;;;23.20;45.40;;;;;;5018088;28;20452;-81
2023/09/01 02:27:12;;;;;;;1.73;1.63;;;23.20;45.30;;;;;;5018043;28;20233;-79
2023/09/01 02:29:38;;;;;;;1.73;1.63;;;23.20;45.30;;;;;;5018308;28;20226;-83
2023/09/01 02:32:04;;;;;;;1.67;1.57;;;23.20;45.30;;;;;;5016567;28;20792;-80
2023/09/01 02:34:29;;;;;;;1.50;1.40;;;23.20;45.30;;;;;;5014478;28;20288;-83
2023/09/01 02:36:55;;;;;;;2.00;1.80;;;23.20;45.30;;;;;;5018965;28;20280;-81
2023/09/01 02:39:20;;;;;;;1.70;1.60;;;23.20;45.30;;;;;;5013531;28;21258;-82
2023/09/01 02:41:46;;;;;;;2.00;1.90;;;23.20;45.30;;;;;;5016357;28;20230;-81
2023/09/01 02:44:11;;;;;;;1.80;1.70;;;23.20;45.30;;;;;;5020331;28;21482;-80
2023/09/01 02:46:37;;;;;;;1.80;1.70;;;23.20;45.40;;;;;;5022864;28;20601;-82
2023/09/01 02:49:03;;;;;;;1.80;1.70;;;23.20;45.30;;;;;;5019344;28;20223;-81
2023/09/01 02:51:29;;;;;;;1.60;1.50;;;23.20;45.30;;;;;;5019597;28;20225;-81
2023/09/01 02:53:54;;;;;;;1.73;1.63;;;23.20;45.30;;;;;;5013541;28;20470;-79
2023/09/01 02:56:20;;;;;;;1.70;1.60;;;23.20;45.40;;;;;;5008392;28;21758;-79
2023/09/01 02:58:45;;;;;;;1.77;1.67;;;23.20;45.40;;;;;;5017583;28;20659;-79
2023/09/01 03:01:11;;;;;;;1.70;1.60;;;23.20;45.30;;;;;;5007414;28;20230;-81
2023/09/01 03:03:40;;;;;;;1.77;1.67;;;23.20;45.40;;;;;;5017617;28;20238;-82
2023/09/01 03:06:08;;;;;;;1.60;1.50;;;23.20;45.40;;;;;;5019278;28;20447;-81
2023/09/01 03:08:34;;;;;;;1.90;1.80;;;23.20;45.40;;;;;;5021445;28;20552;-82
2023/09/01 03:11:00;;;;;;;1.87;1.77;;;23.20;45.40;;;;;;5018458;28;20498;-82
2023/09/01 03:13:26;;;;;;;1.70;1.60;;;23.20;45.40;;;;;;5020673;28;20513;-81
2023/09/01 03:15:53;;;;;;;1.63;1.53;;;23.10;45.20;;;;;;5015483;28;20861;-79
2023/09/01 03:18:19;;;;;;;1.80;1.70;;;23.20;45.30;;;;;;5018569;28;20229;-80
2023/09/01 03:20:44;;;;;;;1.70;1.60;;;23.20;45.40;;;;;;5016353;28;20468;-79
2023/09/01 03:23:10;;;;;;;2.17;2.07;;;23.10;45.30;;;;;;5019967;28;20237;-82
2023/09/01 03:25:35;;;;;;;1.90;1.80;;;23.20;45.40;;;;;;5017660;28;20228;-81
2023/09/01 03:28:01;;;;;;;1.87;1.53;;;23.20;45.50;;;;;;5018147;28;20221;-80
2023/09/01 03:30:26;;;;;;;2.10;1.90;;;23.10;45.30;;;;;;5015755;28;20226;-81
2023/09/01 03:32:52;;;;;;;1.90;1.70;;;23.20;45.50;;;;;;5015840;28;20230;-81
2023/09/01 03:35:18;;;;;;;2.00;1.90;;;23.10;45.30;;;;;;5013778;28;20229;-80
2023/09/01 03:37:43;;;;;;;1.80;1.70;;;23.10;45.30;;;;;;5015701;28;20234;-81
2023/09/01 03:40:09;;;;;;;1.60;1.50;;;23.20;45.50;;;;;;5020663;28;20225;-80
2023/09/01 03:42:36;;;;;;;2.50;2.33;;;23.20;45.50;;;;;;5017922;28;20242;-81
2023/09/01 03:45:02;;;;;;;1.80;1.70;;;23.10;45.30;;;;;;5014526;28;20483;-79
2023/09/01 03:47:28;;;;;;;1.60;1.50;;;23.20;45.50;;;;;;5016503;28;21017;-78
2023/09/01 03:49:53;;;;;;;1.83;1.73;;;23.20;45.50;;;;;;5017864;28;20557;-81
2023/09/01 03:52:19;;;;;;;1.87;1.77;;;23.10;45.30;;;;;;5020115;28;20678;-81
2023/09/01 03:54:44;;;;;;;1.90;1.80;;;23.10;45.30;;;;;;5017378;28;20314;-79
2023/09/01 03:57:10;;;;;;;1.97;1.87;;;23.10;45.30;;;;;;5016327;28;21673;-79
2023/09/01 03:59:35;;;;;;;2.30;1.77;;;23.20;45.50;;;;;;5019224;28;20231;-78
2023/09/01 04:02:01;;;;;;;1.70;1.60;;;23.10;45.30;;;;;;5018242;28;20238;-81
2023/09/01 04:04:27;;;;;;;1.90;1.80;;;23.10;45.30;;;;;;5014289;28;20218;-81
2023/09/01 04:06:53;;;;;;;1.80;1.70;;;23.10;45.30;;;;;;5016046;28;20274;-80
2023/09/01 04:09:19;;;;;;;1.80;1.70;;;23.10;45.30;;;;;;5008927;28;20460;-87
2023/09/01 04:11:44;;;;;;;1.90;1.80;;;23.10;45.30;;;;;;5008695;28;20277;-84
2023/09/01 04:14:11;;;;;;;1.90;1.80;;;23.10;45.30;;;;;;5014227;28;20305;-84
2023/09/01 04:16:38;;;;;;;1.60;1.50;;;23.20;45.50;;;;;;5020585;28;20234;-83
2023/09/01 04:19:03;;;;;;;1.90;1.80;;;23.10;45.30;;;;;;5018891;28;20470;-79
2023/09/01 04:21:29;;;;;;;1.60;1.50;;;23.20;45.40;;;;;;5013921;28;21029;-78
2023/09/01 04:23:54;;;;;;;1.77;1.67;;;23.20;45.30;;;;;;5015287;28;20260;-77
2023/09/01 04:26:20;;;;;;;3.97;2.00;;;23.20;45.30;;;;;;5014515;28;20595;-80
2023/09/01 04:28:45;;;;;;;2.10;1.63;;;23.20;45.30;;;;;;5015276;28;20219;-77
2023/09/01 04:31:29;;;;;;;1.90;1.80;;;23.20;45.30;;;;;;5013107;28;20682;-76
2023/09/01 04:33:57;;;;;;;2.17;2.07;;;23.20;45.20;;;;;;5020539;28;21102;-77
2023/09/01 04:36:23;;;;;;;2.07;1.97;;;23.20;45.20;;;;;;5020088;28;20990;-80
2023/09/01 04:38:49;;;;;;;1.90;1.80;;;23.20;45.20;;;;;;5015731;28;20459;-76
2023/09/01 04:41:15;;;;;;;1.83;1.73;;;23.20;45.30;;;;;;5034874;28;20640;-77
2023/09/01 04:43:41;;;;;;;1.80;1.70;;;23.20;45.20;;;;;;5019362;28;20468;-75
2023/09/01 04:46:06;;;;;;;1.67;1.57;;;23.20;45.20;;;;;;5018049;28;20284;-76
2023/09/01 04:48:34;;;;;;;1.90;1.80;;;23.20;45.30;;;;;;5013569;28;20547;-79
2023/09/01 04:51:02;;;;;;;1.90;1.80;;;23.20;45.20;;;;;;5012378;28;21842;-78
2023/09/01 04:53:28;;;;;;;1.73;1.63;;;23.20;45.20;;;;;;5017870;28;20500;-76
2023/09/01 04:55:54;;;;;;;1.67;1.57;;;23.20;45.20;;;;;;5014357;28;20487;-75
2023/09/01 04:58:19;;;;;;;1.87;1.77;;;23.20;45.20;;;;;;5015652;28;20448;-75
2023/09/01 05:00:45;;;;;;;1.70;1.60;;;23.20;45.30;;;;;;5015463;28;20322;-76
2023/09/01 05:03:10;;;;;;;1.70;1.60;;;23.20;45.20;;;;;;5011484;28;20226;-75
2023/09/01 05:05:36;;;;;;;1.67;1.57;;;23.20;45.30;;;;;;5016957;28;20230;-73
2023/09/01 05:08:02;;;;;;;1.83;1.70;;;23.20;45.30;;;;;;5016671;28;20233;-73
2023/09/01 05:10:28;;;;;;;2.00;1.90;;;23.20;45.30;;;;;;5014902;28;20230;-75
2023/09/01 05:12:53;;;;;;;1.80;1.70;;;23.20;45.30;;;;;;5017235;28;20456;-74
2023/09/01 05:15:19;;;;;;;2.70;2.00;;;23.20;45.30;;;;;;5011014;28;20249;-79
2023/09/01 05:17:46;;;;;;;1.70;1.60;;;23.20;45.30;;;;;;5009706;28;20748;-76
2023/09/01 05:20:12;;;;;;;1.67;1.57;;;23.20;45.40;;;;;;5017743;28;20455;-75
2023/09/01 05:22:37;;;;;;;1.70;1.60;;;23.20;45.30;;;;;;5021122;28;20510;-77
2023/09/01 05:25:03;;;;;;;1.73;1.63;;;23.20;45.40;;;;;;5013478;28;20562;-72
2023/09/01 05:27:29;;;;;;;2.00;1.90;;;23.20;45.30;;;;;;5019387;28;20261;-77
2023/09/01 05:29:55;;;;;;;1.83;1.73;;;23.20;45.50;;;;;;5014829;28;20547;-74
2023/09/01 05:32:21;;;;;;;1.80;1.70;;;23.20;45.40;;;;;;5011831;28;20241;-76
2023/09/01 05:34:47;;;;;;;2.23;1.90;;;23.20;45.50;;;;;;5009900;28;20570;-73
2023/09/01 05:37:13;;;;;;;1.80;1.70;;;23.20;45.50;;;;;;5015786;28;20493;-71
2023/09/01 05:39:42;;;;;;;1.70;1.60;;;23.20;45.50;;;;;;5019548;28;20589;-77
2023/09/01 05:42:08;;;;;;;1.63;1.53;;;23.20;45.50;;;;;;5016698;28;20697;-76
2023/09/01 05:44:35;;;;;;;1.90;1.80;;;23.20;45.50;;;;;;5018223;28;20483;-76
2023/09/01 05:47:02;;;;;;;1.73;1.63;;;23.20;45.50;;;;;;5017164;28;20633;-77
2023/09/01 05:49:29;;;;;;;1.90;1.77;;;23.20;45.60;;;;;;5019208;28;20444;-76
2023/09/01 05:51:55;;;;;;;3.00;1.70;;;23.20;45.60;;;;;;5018822;28;20539;-76
2023/09/01 05:54:20;;;;;;;1.80;1.70;;;23.20;45.60;;;;;;5025880;28;20459;-76
2023/09/01 05:56:46;;;;;;;1.70;1.60;;;23.20;45.50;;;;;;5026946;28;20226;-77
2023/09/01 05:59:12;;;;;;;1.90;1.80;;;23.20;45.60;;;;;;5029483;28;20640;-77
2023/09/01 06:01:38;;;;;;;3.67;1.63;;;23.20;45.50;;;;;;5032390;28;20242;-77
2023/09/01 06:04:04;;;;;;;1.80;1.70;;;23.20;45.60;;;;;;5033253;28;20222;-77
2023/09/01 06:06:31;;;;;;;1.90;1.80;;;23.20;45.60;;;;;;5035809;28;20252;-77
2023/09/01 06:08:57;;;;;;;2.17;1.50;;;23.20;45.60;;;;;;5034544;28;20881;-77
2023/09/01 06:11:23;;;;;;;2.27;2.07;;;23.20;45.60;;;;;;5034180;28;20964;-77
2023/09/01 06:13:49;;;;;;;1.87;1.77;;;23.20;45.60;;;;;;5033740;28;20474;-77
2023/09/01 06:16:14;;;;;;;1.90;1.80;;;23.20;45.60;;;;;;5034856;28;20221;-78
2023/09/01 06:18:40;;;;;;;2.20;2.10;;;23.20;45.60;;;;;;5036718;28;20250;-77
2023/09/01 06:21:05;;;;;;;1.80;1.70;;;23.20;45.60;;;;;;5033145;28;20234;-77
2023/09/01 06:23:31;;;;;;;1.87;1.77;;;23.20;45.60;;;;;;5030929;28;20229;-78
2023/09/01 06:25:57;;;;;;;1.73;1.63;;;23.20;45.70;;;;;;5031457;28;20228;-77
2023/09/01 06:28:22;;;;;;;1.80;1.70;;;23.20;45.70;;;;;;5022958;28;20250;-77
2023/09/01 06:30:49;;;;;;;1.70;1.60;;;23.20;45.70;;;;;;5027745;28;20230;-78
2023/09/01 06:33:15;;;;;;;1.70;1.60;;;23.20;45.60;;;;;;5029577;28;21057;-77
2023/09/01 06:35:41;;;;;;;2.10;2.00;;;23.20;45.70;;;;;;5030771;28;20470;-77
2023/09/01 06:38:07;;;;;;;1.77;1.50;;;23.20;45.60;;;;;;5031230;28;20234;-77
2023/09/01 06:40:33;;;;;;;1.90;1.80;;;23.20;45.70;;;;;;5034492;28;20993;-78
2023/09/01 06:42:59;;;;;;;2.47;1.50;;;23.20;45.70;;;;;;5029962;28;20281;-78
2023/09/01 06:45:24;;;;;;;1.70;1.60;;;23.20;45.60;;;;;;5031045;28;20483;-77
2023/09/01 06:47:55;;;;;;;1.70;1.60;;;23.20;45.70;;;;;;5031818;28;20276;-77
2023/09/01 06:50:23;;;;;;;1.70;1.60;;;23.20;45.60;;;;;;5032810;28;20214;-77
2023/09/01 06:52:50;;;;;;;1.90;1.80;;;23.20;45.70;;;;;;5034379;28;20601;-77
2023/09/01 06:55:16;;;;;;;1.70;1.60;;;23.20;45.70;;;;;;5030209;28;20498;-77
2023/09/01 06:57:42;;;;;;;2.87;2.20;;;23.20;45.70;;;;;;5026800;28;21396;-77
2023/09/01 07:00:09;;;;;;;1.80;1.70;;;23.20;45.70;;;;;;5023658;28;20666;-78
2023/09/01 07:02:34;;;;;;;1.70;1.60;;;23.20;45.70;;;;;;5033382;28;20289;-77
2023/09/01 07:05:00;;;;;;;1.80;1.70;;;23.20;45.70;;;;;;5029633;28;20632;-77
2023/09/01 07:07:26;;;;;;;1.70;1.60;;;23.20;45.70;;;;;;5028462;28;20219;-77
2023/09/01 07:09:51;;;;;;;2.50;1.60;;;23.20;45.70;;;;;;5022197;28;20226;-77
2023/09/01 07:12:17;;;;;;;1.60;1.50;;;23.20;45.70;;;;;;5022726;28;20713;-79
2023/09/01 07:14:42;;;;;;;1.90;1.80;;;23.20;45.70;;;;;;5029972;28;20693;-77
2023/09/01 07:17:13;;;;;;;1.93;1.83;;;23.20;45.70;;;;;;5025541;28;20281;-73
2023/09/01 07:19:39;;;;;;;1.70;1.60;;;23.20;45.70;;;;;;5026946;28;20321;-73
2023/09/01 07:22:05;;;;;;;1.90;1.80;;;23.20;45.70;;;;;;5031495;28;20823;-74
2023/09/01 07:24:34;;;;;;;2.30;1.60;;;23.20;45.70;;;;;;5029584;28;20808;-74
2023/09/01 07:26:59;;;;;;;1.60;1.50;;;23.20;45.70;;;;;;5026651;28;20462;-74
2023/09/01 07:29:25;;;;;;;1.80;1.70;;;23.20;45.70;;;;;;5030218;28;20459;-75
2023/09/01 07:31:50;;;;;;;1.80;1.70;;;23.20;45.80;;;;;;5032135;28;20226;-75
2023/09/01 07:34:16;;;;;;;1.83;1.73;;;23.20;45.70;;;;;;5030947;28;20245;-75
2023/09/01 07:36:41;;;;;;;2.30;1.70;;;23.20;45.80;;;;;;5028992;28;20218;-76
2023/09/01 07:39:07;;;;;;;1.70;1.60;;;23.20;45.70;;;;;;5029645;28;20675;-76
2023/09/01 07:41:34;;;;;;;1.50;1.40;;;23.20;45.70;;;;;;5033493;28;20708;-76
2023/09/01 07:43:59;;;;;;;1.73;1.63;;;23.20;45.80;;;;;;5027073;28;20637;-76
2023/09/01 07:46:25;;;;;;;3.50;1.80;;;23.20;45.80;;;;;;5027074;28;20471;-75
2023/09/01 07:48:50;;;;;;;1.70;1.60;;;23.20;45.80;;;;;;5029478;28;20305;-77
2023/09/01 07:51:16;;;;;;;1.90;1.80;;;23.20;45.80;;;;;;5030182;28;20325;-74
2023/09/01 07:53:41;;;;;;;1.70;1.60;;;23.20;45.80;;;;;;5028796;28;20253;-75
2023/09/01 07:56:10;;;;;;;1.77;1.40;;;23.20;45.80;;;;;;5029591;28;20280;-74
2023/09/01 07:58:35;;;;;;;1.40;1.30;;;23.20;45.80;;;;;;5029437;28;20223;-74
2023/09/01 08:01:01;;;;;;;1.70;1.60;;;23.20;45.80;;;;;;5031296;28;20669;-74
2023/09/01 08:03:26;;;;;;;1.60;1.50;;;23.20;45.80;;;;;;5029254;28;20206;-74
2023/09/01 08:05:52;;;;;;;1.60;1.50;;;23.20;46.20;;;;;;5023077;28;20249;-74
2023/09/01 08:08:18;;;;;;;1.70;1.60;;;23.20;45.90;;;;;;5017424;28;20230;-71
2023/09/01 08:10:43;;;;;;;2.03;1.90;;;23.20;45.90;;;;;;5018068;28;20325;-72
2023/09/01 08:13:09;;;;;;;1.50;1.40;;;23.20;45.90;;;;;;5021674;28;20352;-75
2023/09/01 08:15:34;;;;;;;1.77;1.67;;;23.20;45.90;;;;;;5019848;28;20226;-75
2023/09/01 08:18:00;;;;;;;1.90;1.80;;;23.20;46.00;;;;;;5019437;28;20226;-76
2023/09/01 08:20:26;;;;;;;1.73;1.63;;;23.20;45.90;;;;;;5028078;28;20304;-76
2023/09/01 08:22:52;;;;;;;2.37;1.77;;;23.20;46.00;;;;;;5034122;28;20235;-76
2023/09/01 08:25:17;;;;;;;1.67;1.57;;;23.20;45.90;;;;;;5028462;28;20455;-77
2023/09/01 08:27:43;;;;;;;1.77;1.67;;;23.20;46.00;;;;;;5030093;28;20244;-76
2023/09/01 08:30:10;;;;;;;1.50;1.40;;;23.20;46.00;;;;;;5031418;28;20253;-77
2023/09/01 08:32:38;;;;;;;1.70;1.60;;;23.20;46.00;;;;;;5032339;28;20562;-77
2023/09/01 08:35:04;;;;;;;1.83;1.73;;;23.20;46.10;;;;;;5028484;28;20826;-77
2023/09/01 08:37:30;;;;;;;1.83;1.40;;;23.20;46.00;;;;;;5029907;28;20959;-76
2023/09/01 08:39:55;;;;;;;1.87;1.77;;;23.20;46.00;;;;;;5027291;28;20310;-77
2023/09/01 08:42:21;;;;;;;1.73;1.63;;;23.20;46.00;;;;;;5028456;28;20265;-77
2023/09/01 08:44:49;;;;;;;1.80;1.70;;;23.20;46.00;;;;;;5023440;28;20278;-78
2023/09/01 08:47:20;;;;;;;1.70;1.60;;;23.20;46.00;;;;;;5025928;28;20471;-78
2023/09/01 08:49:48;;;;;;;1.57;1.47;;;23.20;46.00;;;;;;5021717;28;20459;-75
2023/09/01 08:52:16;;;;;;;1.60;1.50;;;23.20;46.00;;;;;;5027165;28;20464;-75
2023/09/01 08:54:42;;;;;;;1.60;1.50;;;23.20;46.10;;;;;;5029826;28;20967;-78
2023/09/01 08:57:07;;;;;;;1.63;1.53;;;23.20;46.10;;;;;;5032597;28;20466;-75
2023/09/01 08:59:35;;;;;;;1.70;1.60;;;23.20;46.10;;;;;;5026404;28;20460;-76
2023/09/01 09:02:05;;;;;;;1.73;1.63;;;23.20;46.10;;;;;;5024044;28;20952;-76
2023/09/01 09:04:31;;;;;;;1.87;1.77;;;23.20;46.10;;;;;;5026902;28;20517;-75
2023/09/01 09:07:12;;;;;;;1.50;1.40;;;23.20;46.10;;;;;;5027808;28;20962;-75
2023/09/01 09:09:58;;;;;;;1.70;1.53;;;23.20;46.10;;;;;;5030318;28;20220;-75
2023/09/01 09:12:37;;;;;;;1.80;1.70;;;23.20;46.10;;;;;;5029117;28;20505;-76
2023/09/01 09:15:04;;;;;;;1.70;1.60;;;23.20;46.20;;;;;;5028143;28;20451;-75
2023/09/01 09:17:44;;;;;;;1.70;1.60;;;23.10;46.10;;;;;;5026996;28;20542;-75
2023/09/01 09:20:19;;;;;;;1.77;1.67;;;23.20;46.20;;;;;;5023878;28;20994;-75
2023/09/01 09:23:01;;;;;;;1.50;1.40;;;23.10;46.10;;;;;;5027521;28;20621;-76
2023/09/01 09:25:31;;;;;;;1.60;1.50;;;23.10;46.10;;;;;;5025035;28;20498;-77
2023/09/01 09:28:09;;;;;;;1.93;1.40;;;23.10;46.20;;;;;;5030187;28;20462;-75
2023/09/01 09:30:35;;;;;;;1.60;1.50;;;23.10;46.20;;;;;;5027734;28;20467;-75
2023/09/01 09:33:05;;;;;;;1.70;1.60;;;23.10;46.20;;;;;;5027151;28;20696;-75
2023/09/01 09:35:32;;;;;;;1.60;1.50;;;23.10;46.20;;;;;;5032219;28;22426;-76
2023/09/01 09:37:59;;;;;;;1.70;1.60;;;23.10;46.20;;;;;;5026611;28;20459;-75
2023/09/01 09:40:25;;;;;;;1.57;1.47;;;23.10;46.20;;;;;;5025626;28;20574;-76
2023/09/01 09:42:51;;;;;;;1.80;1.70;;;23.10;46.20;;;;;;5028093;28;20525;-76
2023/09/01 09:45:32;;;;;;;1.53;1.43;;;23.10;46.20;;;;;;5023070;28;20471;-76
2023/09/01 09:48:00;;;;;;;1.70;1.60;;;23.10;46.30;;;;;;5023172;28;20229;-76
2023/09/01 09:50:26;;;;;;;1.60;1.50;;;23.10;46.30;;;;;;5027511;28;20467;-75
2023/09/01 09:52:58;;;;;;;1.47;1.37;;;23.10;46.30;;;;;;5026237;28;20471;-76
2023/09/01 09:55:30;;;;;;;1.43;1.33;;;23.10;46.30;;;;;;5025446;28;21002;-77
2023/09/01 09:58:09;;;;;;;1.70;1.60;;;23.10;46.30;;;;;;5031822;28;20459;-76
2023/09/01 10:00:59;;;;;;;1.40;1.30;;;23.10;46.30;;;;;;5026924;28;20459;-76
2023/09/01 10:03:29;;;;;;;2.00;1.10;;;23.10;46.40;;;;;;5026806;28;20945;-75
2023/09/01 10:05:55;;;;;;;1.50;1.40;;;23.10;46.30;;;;;;5026189;28;20471;-75
2023/09/01 10:08:21;;;;;;;1.43;1.33;;;23.10;46.50;;;;;;5030583;28;20476;-75
2023/09/01 10:10:49;;;;;;;1.60;1.50;;;23.10;46.40;;;;;;5025761;28;20285;-75
2023/09/01 10:13:15;;;;;;;1.80;1.70;;;23.10;46.50;;;;;;5028342;28;20559;-76
2023/09/01 10:15:42;;;;;;;1.70;1.60;;;23.10;46.50;;;;;;5025441;28;20446;-74
2023/09/01 10:18:08;;;;;;;1.50;1.40;;;23.10;46.50;;;;;;5025663;28;20454;-76
2023/09/01 10:20:44;;;;;;;1.57;1.47;;;23.10;46.50;;;;;;5026426;28;20535;-76
2023/09/01 10:23:11;;;;;;;1.53;1.43;;;23.10;46.50;;;;;;5024129;28;20961;-77
2023/09/01 10:25:37;;;;;;;1.33;1.23;;;23.10;46.50;;;;;;5025762;28;20468;-77
2023/09/01 10:28:13;;;;;;;1.60;1.50;;;23.10;46.50;;;;;;5027172;28;20982;-77
2023/09/01 10:30:45;;;;;;;1.50;1.40;;;23.10;46.50;;;;;;5027033;28;20279;-77
2023/09/01 10:33:26;;;;;;;1.30;1.20;;;23.10;46.50;;;;;;5013964;28;20552;-76
2023/09/01 10:35:54;;;;;;;1.50;1.40;;;23.10;46.60;;;;;;5019142;28;20464;-77
2023/09/01 10:38:34;;;;;;;1.50;1.40;;;23.10;46.60;;;;;;5027772;28;20456;-76
2023/09/01 10:41:00;;;;;;;1.60;1.50;;;23.10;46.60;;;;;;5026212;28;20485;-77
2023/09/01 10:43:35;;;;;;;1.37;1.27;;;23.10;46.70;;;;;;5026320;28;20464;-77
2023/09/01 10:46:12;;;;;;;1.30;1.20;;;23.10;46.60;;;;;;5020525;28;20241;-77
2023/09/01 10:48:49;;;;;;;1.53;1.43;;;23.10;46.70;;;;;;5029044;28;20458;-77
2023/09/01 10:51:17;;;;;;;1.40;1.30;;;23.10;47.50;;;;;;5029643;28;20512;-77
2023/09/01 10:53:42;;;;;;;1.30;1.20;;;23.10;46.80;;;;;;5030049;28;20512;-76
2023/09/01 10:56:13;;;;;;;1.60;1.50;;;23.10;46.70;;;;;;5024810;28;20455;-76
2023/09/01 10:58:45;;;;;;;1.50;1.40;;;23.10;46.70;;;;;;5029528;28;20269;-77
2023/09/01 11:01:34;;;;;;;1.30;1.20;;;23.10;46.80;;;;;;5026665;28;20512;-77
2023/09/01 11:04:14;;;;;;;1.17;1.07;;;23.10;46.80;;;;;;5024010;28;20490;-77
2023/09/01 11:06:58;;;;;;;1.40;1.30;;;23.10;46.80;;;;;;5022652;28;20471;-77
2023/09/01 11:09:47;;;;;;;1.23;1.13;;;23.10;46.80;;;;;;5026076;28;20451;-76
2023/09/01 11:12:13;;;;;;;2.07;1.40;;;23.10;46.80;;;;;;5026497;28;20464;-76
2023/09/01 11:15:00;;;;;;;1.30;1.20;;;23.10;46.90;;;;;;5029564;28;20455;-75
2023/09/01 11:17:40;;;;;;;1.27;1.17;;;23.10;46.80;;;;;;5029426;28;20932;-78
2023/09/01 11:20:09;;;;;;;1.30;1.20;;;23.10;46.90;;;;;;5028383;28;20447;-78
2023/09/01 11:22:36;;;;;;;2.60;1.17;;;23.10;46.90;;;;;;5030543;28;20486;-78
2023/09/01 11:25:02;;;;;;;1.40;1.30;;;23.10;46.90;;;;;;5024116;28;20544;-78
2023/09/01 11:27:28;;;;;;;1.23;1.13;;;23.10;46.90;;;;;;5028564;28;20460;-77
2023/09/01 11:29:54;;;;;;;1.37;1.27;;;23.10;46.90;;;;;;5027322;28;20459;-77
2023/09/01 11:32:27;;;;;;;1.40;1.30;;;23.10;46.90;;;;;;5031906;28;20488;-77
2023/09/01 11:34:53;;;;;;;1.30;1.20;;;23.10;46.90;;;;;;5027955;28;20230;-77
2023/09/01 11:37:40;;;;;;;1.53;1.43;;;23.10;47.00;;;;;;5027855;28;20522;-77
2023/09/01 11:40:12;;;;;;;1.40;1.30;;;23.10;47.00;;;;;;5029014;28;20467;-77
2023/09/01 11:42:39;;;;;;;1.63;1.30;;;23.10;47.10;;;;;;5020772;28;21355;-75
2023/09/01 11:45:08;;;;;;;1.50;1.40;;;23.10;47.10;;;;;;5029383;28;20604;-77
2023/09/01 11:47:34;;;;;;;1.20;1.10;;;23.10;47.10;;;;;;5027051;28;20458;-79
2023/09/01 11:50:00;;;;;;;1.40;1.30;;;23.10;47.10;;;;;;5030996;28;20471;-79
2023/09/01 11:52:26;;;;;;;1.50;1.40;;;23.10;47.20;;;;;;5032454;28;20494;-79
2023/09/01 11:54:52;;;;;;;1.20;1.10;;;23.10;47.20;;;;;;5030403;28;20539;-79
2023/09/01 11:57:18;;;;;;;1.20;1.10;;;23.10;47.30;;;;;;5034266;28;20269;-79
2023/09/01 11:59:47;;;;;;;1.70;1.10;;;23.10;47.20;;;;;;5028739;28;20272;-78
2023/09/01 12:02:17;;;;;;;1.30;1.20;;;23.10;47.20;;;;;;5028783;28;20824;-79
2023/09/01 12:04:50;;;;;;;1.10;1.00;;;23.10;47.30;;;;;;5024594;28;20475;-81
2023/09/01 12:07:29;;;;;;;1.20;1.10;;;23.10;47.30;;;;;;5025743;28;20475;-77
2023/09/01 12:09:55;;;;;;;1.10;1.00;;;23.10;47.30;;;;;;5024793;28;20508;-77
2023/09/01 12:12:21;;;;;;;1.33;1.23;;;23.10;47.40;;;;;;5028911;28;20875;-77
2023/09/01 12:14:47;;;;;;;1.47;1.37;;;23.10;47.40;;;;;;5019038;28;21014;-76
2023/09/01 12:17:18;;;;;;;1.37;1.27;;;23.10;47.40;;;;;;5021257;28;20505;-77
2023/09/01 12:19:51;;;;;;;1.40;1.30;;;23.10;47.40;;;;;;5025217;28;20225;-77
2023/09/01 12:22:20;;;;;;;1.50;1.40;;;23.10;47.50;;;;;;5023583;28;21453;-78
2023/09/01 12:24:54;;;;;;;1.30;1.20;;;23.10;47.40;;;;;;5028296;28;21066;-77
2023/09/01 12:27:20;;;;;;;1.33;1.23;;;23.10;47.40;;;;;;5029450;28;20448;-78
2023/09/01 12:29:47;;;;;;;1.20;1.10;;;23.10;47.40;;;;;;5028725;28;20463;-78
2023/09/01 12:32:12;;;;;;;1.40;1.30;;;23.10;47.50;;;;;;5030000;28;20218;-77
2023/09/01 12:34:38;;;;;;;1.40;1.30;;;23.10;47.40;;;;;;5024838;28;20481;-78
2023/09/01 12:37:04;;;;;;;1.20;1.10;;;23.10;47.40;;;;;;5029579;28;20427;-79
2023/09/01 12:39:30;;;;;;;1.23;1.13;;;23.10;47.40;;;;;;5026958;28;20221;-78
2023/09/01 12:41:55;;;;;;;1.20;1.10;;;23.10;47.40;;;;;;5026755;28;20563;-78
2023/09/01 12:44:21;;;;;;;1.30;1.20;;;23.10;47.40;;;;;;5023599;28;21285;-76
2023/09/01 12:46:47;;;;;;;1.30;1.20;;;23.10;47.50;;;;;;5023778;28;22016;-76
2023/09/01 12:49:13;;;;;;;1.53;1.43;;;23.10;47.40;;;;;;5025497;28;20221;-77
2023/09/01 12:51:41;;;;;;;1.20;1.10;;;23.10;47.40;;;;;;5031684;28;20451;-77